createdAt,value
2022-12-05T00:01:18.981Z,98012.02
2022-12-05T00:03:47.221Z,98007.33
2022-12-05T00:06:15.338Z,98006.92
2022-12-05T00:08:43.692Z,98010.51
2022-12-05T00:11:13.206Z,98012.95
2022-12-05T00:13:41.445Z,98011.17
2022-12-05T00:16:10.356Z,98009.43
2022-12-05T00:18:38.340Z,98010.59
2022-12-05T00:21:06.708Z,98012.17
2022-12-05T00:23:34.525Z,98017.48
2022-12-05T00:26:03.697Z,98020.16
2022-12-05T00:28:35.087Z,98022.19
2022-12-05T00:31:03.977Z,98022.67
2022-12-05T00:33:32.213Z,98022.64
2022-12-05T00:36:03.871Z,98024.32
2022-12-05T00:38:31.654Z,98027.94
2022-12-05T00:41:03.410Z,98031.45
2022-12-05T00:43:31.731Z,98033.59
2022-12-05T00:46:03.728Z,98032.40
2022-12-05T00:48:32.044Z,98029.74
2022-12-05T00:51:04.310Z,98033.47
2022-12-05T00:53:34.361Z,98029.95
2022-12-05T00:56:13.026Z,98030.05
2022-12-05T00:58:40.728Z,98030.43
2022-12-05T01:01:10.729Z,98027.65
2022-12-05T01:03:38.968Z,98031.20
2022-12-05T01:06:07.073Z,98033.85
2022-12-05T01:08:35.345Z,98029.36
2022-12-05T01:11:04.376Z,98028.89
2022-12-05T01:13:32.906Z,98032.45
2022-12-05T01:16:01.210Z,98031.55
2022-12-05T01:18:29.318Z,98028.63
2022-12-05T01:20:57.112Z,98024.75
2022-12-05T01:23:24.910Z,98025.35
2022-12-05T01:25:53.255Z,98026.11
2022-12-05T01:28:21.016Z,98025.15
2022-12-05T01:30:49.875Z,98023.33
2022-12-05T01:33:18.270Z,98022.74
2022-12-05T01:35:46.211Z,98017.65
2022-12-05T01:38:14.028Z,98021.45
2022-12-05T01:40:41.796Z,98023.83
2022-12-05T01:43:17.720Z,98024.35
2022-12-05T01:45:46.729Z,98022.00
2022-12-05T01:48:19.567Z,98018.00
2022-12-05T01:50:48.726Z,98017.17
2022-12-05T01:53:16.749Z,98009.98
2022-12-05T01:55:45.331Z,98004.96
2022-12-05T01:58:13.366Z,98002.98
2022-12-05T02:00:41.065Z,98000.58
2022-12-05T02:03:10.940Z,97999.17
2022-12-05T02:05:38.685Z,97995.36
2022-12-05T02:08:07.697Z,97997.20
2022-12-05T02:10:40.671Z,97999.77
2022-12-05T02:13:27.148Z,98002.63
2022-12-05T02:16:13.409Z,98001.08
2022-12-05T02:18:41.223Z,98007.66
2022-12-05T02:21:44.732Z,98010.91
2022-12-05T02:24:30.936Z,98013.72
2022-12-05T02:27:19.689Z,98010.98
2022-12-05T02:29:50.713Z,98009.29
2022-12-05T02:32:30.747Z,98014.98
2022-12-05T02:34:58.465Z,98016.06
2022-12-05T02:37:41.472Z,98010.64
2022-12-05T02:40:23.767Z,98011.60
2022-12-05T02:42:56.514Z,98011.30
2022-12-05T02:45:25.791Z,98011.95
2022-12-05T02:47:54.397Z,98009.52
2022-12-05T02:50:25.180Z,98011.05
2022-12-05T02:52:54.493Z,98009.75
2022-12-05T02:55:23.391Z,98011.42
2022-12-05T02:57:52.917Z,98010.36
2022-12-05T03:00:22.027Z,98011.15
2022-12-05T03:02:54.448Z,98008.91
2022-12-05T03:05:40.806Z,98006.38
2022-12-05T03:08:11.890Z,98003.55
2022-12-05T03:10:42.499Z,98002.82
2022-12-05T03:13:13.943Z,98007.80
2022-12-05T03:15:45.185Z,98008.65
2022-12-05T03:18:20.300Z,98011.12
2022-12-05T03:20:50.167Z,98010.34
2022-12-05T03:23:24.204Z,98010.46
2022-12-05T03:26:02.228Z,98009.41
2022-12-05T03:28:36.885Z,98011.31
2022-12-05T03:31:09.398Z,98011.12
2022-12-05T03:33:42.518Z,98019.58
2022-12-05T03:36:22.873Z,98019.98
2022-12-05T03:38:52.025Z,98018.80
2022-12-05T03:41:30.461Z,98012.05
2022-12-05T03:44:01.488Z,98011.52
2022-12-05T03:46:32.399Z,98013.92
2022-12-05T03:49:15.479Z,98016.95
2022-12-05T03:51:46.737Z,98019.38
2022-12-05T03:54:21.216Z,98025.06
2022-12-05T03:57:01.606Z,98021.23
2022-12-05T03:59:35.909Z,98021.83
2022-12-05T04:02:13.551Z,98028.23
2022-12-05T04:05:07.832Z,98028.89
2022-12-05T04:07:38.986Z,98025.25
2022-12-05T04:10:10.181Z,98027.22
2022-12-05T04:12:39.970Z,98027.06
2022-12-05T04:15:13.280Z,98024.72
2022-12-05T04:17:53.749Z,98024.02
2022-12-05T04:20:42.947Z,98028.11
2022-12-05T04:23:11.245Z,98028.26
2022-12-05T04:26:05.205Z,98027.11
2022-12-05T04:28:42.048Z,98031.23
2022-12-05T04:31:12.056Z,98033.25
2022-12-05T04:33:58.996Z,98030.59
2022-12-05T04:36:36.000Z,98027.30
2022-12-05T04:39:03.936Z,98020.02
2022-12-05T04:41:34.412Z,98019.67
2022-12-05T04:44:05.757Z,98018.19
2022-12-05T04:46:34.057Z,98024.02
2022-12-05T04:49:03.693Z,98018.89
2022-12-05T04:51:34.456Z,98017.36
2022-12-05T04:54:05.066Z,98021.89
2022-12-05T04:56:34.353Z,98022.35
2022-12-05T04:59:02.559Z,98018.81
2022-12-05T05:01:30.251Z,98023.30
2022-12-05T05:04:09.747Z,98025.50
2022-12-05T05:06:38.400Z,98028.41
2022-12-05T05:09:06.995Z,98023.32
2022-12-05T05:11:35.646Z,98024.48
2022-12-05T05:14:03.816Z,98030.58
2022-12-05T05:16:36.660Z,98030.29
2022-12-05T05:19:05.202Z,98034.05
2022-12-05T05:21:42.425Z,98037.39
2022-12-05T05:24:10.699Z,98041.34
2022-12-05T05:26:40.068Z,98044.92
2022-12-05T05:29:11.283Z,98045.52
2022-12-05T05:31:40.137Z,98042.15
2022-12-05T05:34:09.865Z,98041.12
2022-12-05T05:36:38.656Z,98042.45
2022-12-05T05:39:09.267Z,98041.52
2022-12-05T05:41:37.073Z,98042.63
2022-12-05T05:44:05.130Z,98043.05
2022-12-05T05:46:34.573Z,98046.80
2022-12-05T05:49:02.966Z,98047.63
2022-12-05T05:51:30.735Z,98046.77
2022-12-05T05:53:59.061Z,98050.70
2022-12-05T05:56:27.867Z,98052.91
2022-12-05T05:58:59.640Z,98054.11
2022-12-05T06:01:28.072Z,98057.95
2022-12-05T06:03:56.095Z,98052.56
2022-12-05T06:06:24.462Z,98053.71
2022-12-05T06:08:52.305Z,98052.81
2022-12-05T06:11:25.764Z,98054.20
2022-12-05T06:13:58.483Z,98053.91
2022-12-05T06:16:26.179Z,98058.64
2022-12-05T06:18:53.911Z,98061.21
2022-12-05T06:21:22.313Z,98057.16
2022-12-05T06:23:50.647Z,98057.68
2022-12-05T06:26:19.651Z,98058.04
2022-12-05T06:28:47.555Z,98058.73
2022-12-05T06:31:20.119Z,98060.59
2022-12-05T06:33:48.436Z,98061.08
2022-12-05T06:36:17.659Z,98063.18
2022-12-05T06:38:45.429Z,98064.20
2022-12-05T06:41:17.348Z,98062.73
2022-12-05T06:43:45.476Z,98065.34
2022-12-05T06:46:14.226Z,98066.25
2022-12-05T06:48:42.087Z,98068.00
2022-12-05T06:51:11.278Z,98070.24
2022-12-05T06:53:39.620Z,98069.52
2022-12-05T06:56:12.761Z,98072.73
2022-12-05T06:58:41.304Z,98074.33
2022-12-05T07:01:33.857Z,98074.61
2022-12-05T07:04:02.267Z,98078.52
2022-12-05T07:06:30.263Z,98079.86
2022-12-05T07:08:58.086Z,98083.65
2022-12-05T07:11:25.958Z,98081.19
2022-12-05T07:13:53.670Z,98088.04
2022-12-05T07:16:21.969Z,98089.52
2022-12-05T07:18:50.366Z,98090.92
2022-12-05T07:21:18.743Z,98094.63
2022-12-05T07:23:47.136Z,98097.71
2022-12-05T07:26:15.991Z,98102.54
2022-12-05T07:28:43.933Z,98099.84
2022-12-05T07:31:13.027Z,98101.96
2022-12-05T07:33:41.023Z,98104.67
2022-12-05T07:36:10.277Z,98103.16
2022-12-05T07:38:38.381Z,98100.81
2022-12-05T07:41:13.568Z,98100.30
2022-12-05T07:43:42.122Z,98099.61
2022-12-05T07:46:11.836Z,98099.77
2022-12-05T07:48:40.613Z,98103.92
2022-12-05T07:51:09.767Z,98106.21
2022-12-05T07:53:38.376Z,98104.66
2022-12-05T07:56:07.259Z,98106.73
2022-12-05T07:58:35.457Z,98111.23
2022-12-05T08:01:07.986Z,98110.89
2022-12-05T08:03:37.615Z,98112.33
2022-12-05T08:06:06.582Z,98111.83
2022-12-05T08:08:34.329Z,98110.83
2022-12-05T08:11:06.270Z,98110.59
2022-12-05T08:13:34.602Z,98110.45
2022-12-05T08:16:03.687Z,98114.27
2022-12-05T08:18:31.771Z,98114.58
2022-12-05T08:21:10.690Z,98118.30
2022-12-05T08:23:39.016Z,98119.02
2022-12-05T08:26:17.122Z,98119.48
2022-12-05T08:28:45.502Z,98120.21
2022-12-05T08:31:14.830Z,98118.14
2022-12-05T08:33:43.022Z,98119.45
2022-12-05T08:36:13.392Z,98121.53
2022-12-05T08:38:41.542Z,98123.25
2022-12-05T08:41:10.571Z,98119.88
2022-12-05T08:43:38.292Z,98120.51
2022-12-05T08:46:06.107Z,98120.95
2022-12-05T08:48:34.792Z,98120.43
2022-12-05T08:51:11.420Z,98116.04
2022-12-05T08:53:44.409Z,98111.98
2022-12-05T08:56:13.405Z,98115.29
2022-12-05T08:58:41.693Z,98118.17
2022-12-05T09:01:19.565Z,98117.27
2022-12-05T09:03:48.359Z,98109.36
2022-12-05T09:06:16.301Z,98105.06
2022-12-05T09:08:44.756Z,98104.47
2022-12-05T09:11:14.208Z,98103.83
2022-12-05T09:13:42.155Z,98104.52
2022-12-05T09:16:11.658Z,98106.77
2022-12-05T09:18:39.751Z,98110.38
2022-12-05T09:21:37.136Z,98110.66
2022-12-05T09:24:04.903Z,98104.51
2022-12-05T09:26:32.661Z,98102.80
2022-12-05T09:29:01.493Z,98101.23
2022-12-05T09:31:30.669Z,98096.04
2022-12-05T09:33:58.542Z,98096.50
2022-12-05T09:36:27.824Z,98089.62
2022-12-05T09:38:59.140Z,98084.60
2022-12-05T09:42:04.444Z,98076.63
2022-12-05T09:44:35.829Z,98074.42
2022-12-05T09:47:11.776Z,98069.50
2022-12-05T09:49:44.376Z,98066.27
2022-12-05T09:52:22.794Z,98062.17
2022-12-05T09:54:52.100Z,98052.13
2022-12-05T09:57:30.412Z,98051.94
2022-12-05T10:00:01.832Z,98047.39
2022-12-05T10:02:35.778Z,98044.67
2022-12-05T10:05:22.308Z,98040.73
2022-12-05T10:07:50.320Z,98040.99
2022-12-05T10:10:24.503Z,98044.16
2022-12-05T10:13:07.879Z,98047.99
2022-12-05T10:15:39.100Z,98049.79
2022-12-05T10:18:26.585Z,98046.77
2022-12-05T10:20:57.907Z,98046.77
2022-12-05T10:23:55.429Z,98042.02
2022-12-05T10:26:16.362Z,98045.33
2022-12-05T10:28:59.082Z,98045.99
2022-12-05T10:31:30.487Z,98046.01
2022-12-05T10:34:04.481Z,98042.58
2022-12-05T10:36:32.741Z,98046.08
2022-12-05T10:39:00.626Z,98044.33
2022-12-05T10:41:29.217Z,98041.24
2022-12-05T10:43:58.494Z,98043.13
2022-12-05T10:46:26.704Z,98040.92
2022-12-05T10:48:54.442Z,98038.06
2022-12-05T10:51:25.801Z,98036.95
2022-12-05T10:53:54.259Z,98033.69
2022-12-05T10:56:37.523Z,98032.21
2022-12-05T10:59:06.567Z,98030.50
2022-12-05T11:01:35.685Z,98028.79
2022-12-05T11:04:18.543Z,98027.27
2022-12-05T11:06:51.195Z,98019.53
2022-12-05T11:09:24.207Z,98015.84
2022-12-05T11:12:01.381Z,98012.17
2022-12-05T11:14:40.500Z,98012.25
2022-12-05T11:17:23.193Z,98011.59
2022-12-05T11:19:56.379Z,98011.83
2022-12-05T11:22:30.823Z,98010.84
2022-12-05T11:25:01.401Z,98010.98
2022-12-05T11:27:46.282Z,98010.92
2022-12-05T11:30:18.104Z,98006.88
2022-12-05T11:32:53.769Z,98005.98
2022-12-05T11:35:30.853Z,97998.90
2022-12-05T11:38:00.322Z,97995.83
2022-12-05T11:40:38.798Z,97989.09
2022-12-05T11:43:27.138Z,97989.98
2022-12-05T11:46:10.265Z,97991.98
2022-12-05T11:48:49.900Z,97987.91
2022-12-05T11:51:17.664Z,97984.90
2022-12-05T11:54:04.616Z,97985.55
2022-12-05T11:56:41.775Z,97981.53
2022-12-05T11:59:18.409Z,97973.34
2022-12-05T12:01:46.235Z,97970.52
2022-12-05T12:04:14.081Z,97968.88
2022-12-05T12:06:41.868Z,97966.48
2022-12-05T12:09:23.692Z,97962.78
2022-12-05T12:12:04.026Z,97960.27
2022-12-05T12:14:50.519Z,97958.29
2022-12-05T12:17:26.719Z,97958.59
2022-12-05T12:19:57.739Z,97959.70
2022-12-05T12:22:44.525Z,97957.83
2022-12-05T12:25:12.301Z,97956.60
2022-12-05T12:28:04.541Z,97953.88
2022-12-05T12:30:32.927Z,97951.61
2022-12-05T12:33:29.003Z,97952.55
2022-12-05T12:35:57.020Z,97950.34
2022-12-05T12:38:40.734Z,97946.09
2022-12-05T12:41:17.784Z,97943.44
2022-12-05T12:43:53.621Z,97946.22
2022-12-05T12:46:25.008Z,97945.92
2022-12-05T12:48:52.971Z,97944.01
2022-12-05T12:51:20.893Z,97943.05
2022-12-05T12:53:54.550Z,97943.09
2022-12-05T12:56:39.043Z,97942.60
2022-12-05T12:59:25.442Z,97943.95
2022-12-05T13:01:58.238Z,97945.87
2022-12-05T13:04:45.095Z,97945.28
2022-12-05T13:07:16.796Z,97944.47
2022-12-05T13:09:54.363Z,97942.29
2022-12-05T13:12:26.001Z,97943.75
2022-12-05T13:14:57.317Z,97940.98
2022-12-05T13:17:25.515Z,97942.57
2022-12-05T13:19:54.937Z,97945.86
2022-12-05T13:22:27.682Z,97947.41
2022-12-05T13:24:56.023Z,97945.30
2022-12-05T13:27:27.877Z,97946.80
2022-12-05T13:29:57.413Z,97946.61
2022-12-05T13:32:40.858Z,97945.86
2022-12-05T13:35:10.963Z,97942.52
2022-12-05T13:38:05.300Z,97945.16
2022-12-05T13:41:02.413Z,97942.28
2022-12-05T13:43:30.812Z,97943.56
2022-12-05T13:46:01.414Z,97943.71
2022-12-05T13:48:37.324Z,97941.20
2022-12-05T13:51:08.218Z,97944.32
2022-12-05T13:53:38.929Z,97946.84
2022-12-05T13:56:23.961Z,97947.55
2022-12-05T13:58:53.291Z,97945.52
2022-12-05T14:01:27.910Z,97946.58
2022-12-05T14:04:00.586Z,97942.89
2022-12-05T14:06:40.444Z,97942.25
2022-12-05T14:09:31.595Z,97948.15
2022-12-05T14:12:11.408Z,97945.94
2022-12-05T14:14:57.548Z,97950.02
2022-12-05T14:17:42.174Z,97948.52
2022-12-05T14:20:16.147Z,97950.69
2022-12-05T14:22:53.175Z,97950.21
2022-12-05T14:25:36.499Z,97953.11
2022-12-05T14:28:23.069Z,97949.76
2022-12-05T14:31:01.670Z,97945.52
2022-12-05T14:33:29.644Z,97947.08
2022-12-05T14:36:04.546Z,97951.16
2022-12-05T14:38:39.240Z,97955.55
2022-12-05T14:42:02.203Z,97950.87
2022-12-05T14:44:34.225Z,97952.48
2022-12-05T14:47:07.095Z,97948.05
2022-12-05T14:49:37.717Z,97948.90
2022-12-05T14:52:12.777Z,97949.24
2022-12-05T14:54:40.757Z,97949.67
2022-12-05T14:57:15.580Z,97950.85
2022-12-05T14:59:46.787Z,97950.69
2022-12-05T15:02:23.436Z,97952.36
2022-12-05T15:04:55.796Z,97952.30
2022-12-05T15:07:32.389Z,97948.70
2022-12-05T15:10:02.075Z,97946.92
2022-12-05T15:12:34.080Z,97947.37
2022-12-05T15:15:13.918Z,97941.64
2022-12-05T15:17:46.557Z,97941.47
2022-12-05T15:20:15.782Z,97940.73
2022-12-05T15:22:43.711Z,97939.11
2022-12-05T15:25:20.719Z,97939.69
2022-12-05T15:27:55.735Z,97937.70
2022-12-05T15:30:23.579Z,97938.73
2022-12-05T15:32:56.129Z,97933.80
2022-12-05T15:35:28.716Z,97936.65
2022-12-05T15:37:58.676Z,97938.91
2022-12-05T15:40:26.746Z,97938.72
2022-12-05T15:42:56.285Z,97940.35
2022-12-05T15:45:25.672Z,97938.84
2022-12-05T15:47:55.205Z,97938.80
2022-12-05T15:50:22.984Z,97937.68
2022-12-05T15:52:53.951Z,97936.79
2022-12-05T15:55:51.127Z,97933.48
2022-12-05T15:58:27.001Z,97932.49
2022-12-05T16:00:58.227Z,97931.70
2022-12-05T16:03:40.345Z,97929.27
2022-12-05T16:06:12.524Z,97932.81
2022-12-05T16:08:44.506Z,97928.45
2022-12-05T16:11:13.660Z,97928.88
2022-12-05T16:14:02.237Z,97931.61
2022-12-05T16:16:32.078Z,97926.05
2022-12-05T16:19:04.616Z,97923.90
2022-12-05T16:21:37.906Z,97918.89
2022-12-05T16:24:19.243Z,97917.16
2022-12-05T16:27:07.112Z,97916.51
2022-12-05T16:29:35.016Z,97915.66
2022-12-05T16:32:07.249Z,97911.67
2022-12-05T16:34:35.289Z,97908.73
2022-12-05T16:37:03.236Z,97907.35
2022-12-05T16:39:31.164Z,97907.64
2022-12-05T16:41:59.024Z,97911.11
2022-12-05T16:45:03.699Z,97911.17
2022-12-05T16:47:43.766Z,97912.13
2022-12-05T16:50:22.550Z,97910.34
2022-12-05T16:52:50.671Z,97910.74
2022-12-05T16:55:18.417Z,97906.85
2022-12-05T16:57:46.156Z,97904.98
2022-12-05T17:00:14.919Z,97905.02
2022-12-05T17:02:42.655Z,97901.98
2022-12-05T17:05:14.208Z,97906.36
2022-12-05T17:07:41.941Z,97904.58
2022-12-05T17:10:09.822Z,97904.04
2022-12-05T17:12:37.639Z,97902.09
2022-12-05T17:15:05.618Z,97906.60
2022-12-05T17:17:33.320Z,97906.20
2022-12-05T17:20:01.046Z,97904.02
2022-12-05T17:22:28.843Z,97905.98
2022-12-05T17:24:59.877Z,97904.25
2022-12-05T17:27:27.907Z,97902.89
2022-12-05T17:29:55.912Z,97904.16
2022-12-05T17:32:23.826Z,97903.75
2022-12-05T17:34:51.644Z,97900.64
2022-12-05T17:37:19.460Z,97902.11
2022-12-05T17:39:47.193Z,97899.98
2022-12-05T17:42:14.919Z,97897.16
2022-12-05T17:44:42.977Z,97899.48
2022-12-05T17:47:10.840Z,97901.50
2022-12-05T17:49:38.779Z,97900.25
2022-12-05T17:52:21.578Z,97902.94
2022-12-05T17:54:50.482Z,97902.17
2022-12-05T17:57:18.281Z,97902.33
2022-12-05T17:59:46.418Z,97900.77
2022-12-05T18:02:15.645Z,97900.58
2022-12-05T18:04:43.728Z,97896.89
2022-12-05T18:07:11.647Z,97893.00
2022-12-05T18:09:39.384Z,97890.87
2022-12-05T18:12:07.136Z,97886.43
2022-12-05T18:14:36.152Z,97884.70
2022-12-05T18:17:04.019Z,97882.17
2022-12-05T18:19:31.952Z,97886.59
2022-12-05T18:21:59.708Z,97883.52
2022-12-05T18:24:27.488Z,97883.04
2022-12-05T18:26:56.314Z,97883.77
2022-12-05T18:29:24.195Z,97883.55
2022-12-05T18:31:52.037Z,97883.63
2022-12-05T18:34:19.933Z,97880.35
2022-12-05T18:36:47.743Z,97881.05
2022-12-05T18:39:15.820Z,97874.60
2022-12-05T18:41:43.552Z,97875.72
2022-12-05T18:44:11.434Z,97876.09
2022-12-05T18:46:39.326Z,97878.69
2022-12-05T18:49:11.486Z,97874.14
2022-12-05T18:51:39.754Z,97871.36
2022-12-05T18:54:07.590Z,97872.91
2022-12-05T18:56:38.360Z,97873.77
2022-12-05T18:59:07.845Z,97873.39
2022-12-05T19:01:37.686Z,97871.26
2022-12-05T19:04:06.596Z,97866.89
2022-12-05T19:06:36.706Z,97869.23
2022-12-05T19:09:05.682Z,97866.19
2022-12-05T19:11:36.783Z,97866.50
2022-12-05T19:14:04.970Z,97864.09
2022-12-05T19:16:33.760Z,97862.71
2022-12-05T19:19:05.028Z,97860.75
2022-12-05T19:21:34.293Z,97859.29
2022-12-05T19:24:03.319Z,97861.32
2022-12-05T19:26:31.389Z,97856.92
2022-12-05T19:29:02.061Z,97855.71
2022-12-05T19:31:30.735Z,97854.28
2022-12-05T19:34:00.590Z,97851.86
2022-12-05T19:36:29.748Z,97854.19
2022-12-05T19:38:58.219Z,97854.28
2022-12-05T19:41:26.878Z,97854.21
2022-12-05T19:43:58.094Z,97854.02
2022-12-05T19:46:29.787Z,97851.11
2022-12-05T19:48:58.492Z,97850.80
2022-12-05T19:51:26.297Z,97848.72
2022-12-05T19:56:36.713Z,97845.98
2022-12-05T19:59:05.272Z,97845.66
2022-12-05T20:01:34.871Z,97844.75
2022-12-05T20:04:06.947Z,97842.61
2022-12-05T20:06:45.163Z,97840.19
2022-12-05T20:09:13.835Z,97839.36
2022-12-05T20:11:43.329Z,97836.04
2022-12-05T20:14:12.933Z,97837.27
2022-12-05T20:16:41.014Z,97840.60
2022-12-05T20:19:09.185Z,97837.20
2022-12-05T20:21:39.508Z,97836.31
2022-12-05T20:24:07.754Z,97834.52
2022-12-05T20:26:40.534Z,97834.69
2022-12-05T20:29:08.694Z,97829.69
2022-12-05T20:31:45.367Z,97829.69
2022-12-05T20:34:14.848Z,97825.98
2022-12-05T20:36:42.865Z,97821.77
2022-12-05T20:39:13.566Z,97822.96
2022-12-05T20:41:41.424Z,97820.06
2022-12-05T20:44:11.539Z,97818.64
2022-12-05T20:46:39.434Z,97817.09
2022-12-05T20:49:07.410Z,97816.57
2022-12-05T20:51:35.332Z,97822.70
2022-12-05T20:54:05.418Z,97821.77
2022-12-05T20:56:34.231Z,97819.80
2022-12-05T20:59:03.772Z,97818.60
2022-12-05T21:01:33.345Z,97816.77
2022-12-05T21:04:01.811Z,97816.10
2022-12-05T21:06:31.021Z,97815.95
2022-12-05T21:08:59.725Z,97815.53
2022-12-05T21:11:28.263Z,97816.01
2022-12-05T21:13:56.749Z,97817.45
2022-12-05T21:16:24.846Z,97816.23
2022-12-05T21:18:52.920Z,97810.38
2022-12-05T21:21:21.809Z,97806.92
2022-12-05T21:23:57.579Z,97802.23
2022-12-05T21:26:26.585Z,97800.79
2022-12-05T21:28:54.638Z,97800.56
2022-12-05T21:31:24.221Z,97802.91
2022-12-05T21:33:53.762Z,97797.27
2022-12-05T21:36:22.172Z,97793.81
2022-12-05T21:38:55.626Z,97793.15
2022-12-05T21:41:26.725Z,97793.08
2022-12-05T21:43:55.794Z,97792.40
2022-12-05T21:46:24.796Z,97786.32
2022-12-05T21:48:52.690Z,97783.20
2022-12-05T21:51:21.419Z,97783.73
2022-12-05T21:53:49.164Z,97784.88
2022-12-05T21:56:17.938Z,97781.92
2022-12-05T21:58:46.293Z,97778.63
2022-12-05T22:01:18.955Z,97774.41
2022-12-05T22:03:47.217Z,97775.25
2022-12-05T22:06:15.486Z,97777.46
2022-12-05T22:08:43.727Z,97773.77
2022-12-05T22:11:15.879Z,97765.73
2022-12-05T22:13:44.471Z,97764.17
2022-12-05T22:16:13.076Z,97761.39
2022-12-05T22:18:41.332Z,97757.29
2022-12-05T22:21:11.482Z,97755.23
2022-12-05T22:23:39.190Z,97755.08
2022-12-05T22:26:08.389Z,97754.23
2022-12-05T22:28:36.403Z,97753.69
2022-12-05T22:31:05.709Z,97752.83
2022-12-05T22:33:35.797Z,97753.59
2022-12-05T22:36:05.349Z,97752.94
2022-12-05T22:38:34.879Z,97751.05
2022-12-05T22:41:04.302Z,97744.23
2022-12-05T22:43:32.804Z,97745.73
2022-12-05T22:46:06.663Z,97742.94
2022-12-05T22:48:35.101Z,97743.63
2022-12-05T22:51:03.559Z,97744.05
2022-12-05T22:53:31.977Z,97744.85
2022-12-05T22:56:18.614Z,97739.06
2022-12-05T22:58:46.825Z,97730.14
2022-12-05T23:01:19.049Z,97726.29
2022-12-05T23:03:47.679Z,97726.48
2022-12-05T23:06:16.795Z,97725.05
2022-12-05T23:08:45.433Z,97718.79
2022-12-05T23:11:13.140Z,97719.88
2022-12-05T23:13:40.839Z,97719.48
2022-12-05T23:16:12.361Z,97720.73
2022-12-05T23:18:49.631Z,97719.34
2022-12-05T23:21:27.918Z,97716.56
2022-12-05T23:23:56.938Z,97715.04
2022-12-05T23:26:26.164Z,97713.52
2022-12-05T23:28:54.302Z,97710.54
2022-12-05T23:31:22.283Z,97710.61
2022-12-05T23:33:51.676Z,97704.62
2022-12-05T23:36:20.659Z,97697.64
2022-12-05T23:38:48.839Z,97696.94
2022-12-05T23:41:21.515Z,97688.48
2022-12-05T23:43:50.310Z,97677.99
2022-12-05T23:46:19.654Z,97666.34
2022-12-05T23:48:47.567Z,97665.20
2022-12-05T23:51:18.150Z,97664.35
2022-12-05T23:53:46.990Z,97665.75
2022-12-05T23:56:16.150Z,97669.27
2022-12-05T23:58:44.701Z,97668.87
